Time;durP1;ratioP1;P1;durP2;ratioP2;P2;SDS_P1;SDS_P2;PMS_P1;PMS_P2;Temp;Humidity;BMP_temperature;BMP_pressure;BME280_temperature;BME280_humidity;BME280_pressure;Samples;Min_cycle;Max_cycle;Signal;HPM_P1;HPM_P2
2022/07/30 00:00:36;;;;;;;10.45;4.90;;;;;;;19.67;64.71;99281.63;4956884;28;20514;-79
2022/07/30 00:03:02;;;;;;;8.85;4.57;;;;;;;19.75;64.68;99283.41;4955748;29;20573;-78
2022/07/30 00:05:28;;;;;;;12.13;4.68;;;;;;;19.79;64.44;99282.84;4939699;29;20039;-80
2022/07/30 00:07:54;;;;;;;9.45;4.50;;;;;;;19.72;64.25;99276.47;4939699;29;20050;-80
2022/07/30 00:10:21;;;;;;;11.68;4.57;;;;;;;19.77;64.24;99286.75;4955510;29;20054;-80
2022/07/30 00:12:47;;;;;;;6.25;4.20;;;;;;;19.76;64.04;99285.09;4923599;29;20050;-79
2022/07/30 00:15:13;;;;;;;11.98;4.90;;;;;;;19.65;64.21;99287.19;4955537;29;20115;-79
2022/07/30 00:17:39;;;;;;;9.40;5.05;;;;;;;19.62;64.26;99289.44;4955803;29;20043;-79
2022/07/30 00:20:05;;;;;;;10.30;4.20;;;;;;;19.61;64.28;99295.84;4939306;29;20047;-79
2022/07/30 00:22:31;;;;;;;6.97;4.32;;;;;;;19.46;64.25;99293.09;4955188;29;20051;-81
2022/07/30 00:24:57;;;;;;;10.43;4.80;;;;;;;19.25;64.82;99292.91;4955328;29;20486;-81
2022/07/30 00:27:23;;;;;;;6.60;4.22;;;;;;;19.24;65.14;99288.50;4939466;29;20134;-78
2022/07/30 00:29:49;;;;;;;5.45;4.95;;;;;;;19.15;65.47;99299.41;4938838;29;20087;-79
2022/07/30 00:32:15;;;;;;;7.18;4.60;;;;;;;19.09;65.29;99308.25;4971143;28;20126;-80
2022/07/30 00:34:41;;;;;;;8.43;5.70;;;;;;;19.07;65.83;99304.00;4938975;29;20134;-79
2022/07/30 00:37:06;;;;;;;9.70;5.60;;;;;;;19.07;65.78;99302.16;4954959;29;20043;-79
2022/07/30 00:39:32;;;;;;;7.28;5.72;;;;;;;19.11;66.10;99299.94;4938883;29;20079;-80
2022/07/30 00:42:00;;;;;;;10.73;5.20;;;;;;;19.20;65.95;99306.16;4955618;28;20142;-79
2022/07/30 00:44:28;;;;;;;11.63;6.40;;;;;;;19.30;65.60;99309.47;4923201;29;20505;-79
2022/07/30 00:46:54;;;;;;;11.18;6.38;;;;;;;19.36;65.27;99303.31;4954794;29;20047;-79
2022/07/30 00:49:21;;;;;;;10.88;8.32;;;;;;;19.40;65.14;99304.66;4938704;29;20114;-79
2022/07/30 00:51:47;;;;;;;15.27;8.90;;;;;;;19.44;65.31;99314.09;4954835;29;20140;-80
2022/07/30 00:54:14;;;;;;;9.55;8.25;;;;;;;19.53;65.30;99307.63;4938383;29;20499;-79
2022/07/30 00:56:40;;;;;;;10.82;8.00;;;;;;;19.61;64.81;99302.13;4954390;29;20047;-78
2022/07/30 00:59:07;;;;;;;18.52;9.25;;;;;;;19.62;64.79;99303.84;4955430;28;20039;-78
2022/07/30 01:01:34;;;;;;;14.10;8.68;;;;;;;19.46;65.20;99298.50;4954977;29;20067;-79
2022/07/30 01:04:00;;;;;;;17.05;9.73;;;;;;;19.36;65.23;99292.47;4954230;29;20066;-79
2022/07/30 01:06:26;;;;;;;13.02;8.82;;;;;;;19.34;65.57;99311.66;4970402;28;20415;-79
2022/07/30 01:08:53;;;;;;;11.45;8.02;;;;;;;19.16;65.84;99301.09;4938711;29;20053;-78
2022/07/30 01:11:19;;;;;;;14.10;8.50;;;;;;;19.19;65.99;99307.19;4954349;29;20070;-78
2022/07/30 01:13:46;;;;;;;17.58;10.07;;;;;;;19.21;66.11;99311.38;4938111;29;20399;-78
2022/07/30 01:16:13;;;;;;;13.90;10.95;;;;;;;19.34;66.12;99308.09;4954433;29;20506;-78
2022/07/30 01:21:37;;;;;;;16.42;12.77;;;;;;;19.23;66.29;99313.94;4955248;28;20043;-78
2022/07/30 01:24:26;;;;;;;18.00;12.20;;;;;;;19.26;66.50;99325.25;4955324;28;20137;-79
2022/07/30 01:26:53;;;;;;;21.05;14.25;;;;;;;19.21;66.23;99311.38;4954475;29;20055;-78
2022/07/30 01:29:20;;;;;;;18.55;14.20;;;;;;;19.40;66.13;99318.19;4937815;29;20047;-77
2022/07/30 01:31:48;;;;;;;18.52;14.48;;;;;;;19.40;66.01;99310.91;4938274;29;20447;-77
2022/07/30 01:34:16;;;;;;;23.38;14.07;;;;;;;19.53;65.52;99325.75;4922222;29;20043;-79
2022/07/30 01:36:45;;;;;;;21.13;14.43;;;;;;;19.56;65.54;99325.41;4954926;28;20086;-79
2022/07/30 01:39:13;;;;;;;15.73;14.10;;;;;;;19.64;65.52;99331.63;4953912;29;20066;-79
2022/07/30 01:41:41;;;;;;;16.50;13.80;;;;;;;19.76;65.04;99325.78;4953651;29;20106;-76
2022/07/30 01:44:09;;;;;;;23.45;12.68;;;;;;;19.80;65.02;99310.81;4953669;29;20047;-75
2022/07/30 01:46:36;;;;;;;17.80;12.77;;;;;;;20.00;64.75;99327.41;4921856;29;20379;-74
2022/07/30 01:49:03;;;;;;;14.68;11.98;;;;;;;20.01;64.73;99313.69;4937144;29;20047;-74
2022/07/30 01:51:31;;;;;;;15.85;11.95;;;;;;;20.16;64.24;99326.41;4936965;29;20039;-75
2022/07/30 01:53:59;;;;;;;22.08;12.52;;;;;;;20.22;63.95;99321.09;4968969;28;20162;-75
2022/07/30 01:56:26;;;;;;;15.20;12.68;;;;;;;20.27;63.91;99339.53;4953573;29;20051;-74
2022/07/30 01:58:56;;;;;;;22.52;14.10;;;;;;;20.25;64.03;99330.75;4921764;29;20051;-75
2022/07/30 02:01:26;;;;;;;19.02;14.63;;;;;;;20.06;64.30;99327.53;4937540;29;20090;-75
2022/07/30 02:03:59;;;;;;;21.65;14.43;;;;;;;19.92;65.06;99331.03;4969697;28;20125;-74
2022/07/30 02:06:31;;;;;;;;;;;;;;;19.96;65.18;99326.09;4922302;29;20146;-75
2022/07/30 02:09:04;;;;;;;19.55;15.20;;;;;;;20.07;64.79;99323.78;4969677;28;20505;-75
2022/07/30 02:14:32;;;;;;;26.00;18.52;;;;;;;20.01;65.00;99334.53;4969579;28;20051;-75
2022/07/30 02:17:01;;;;;;;20.90;15.80;;;;;;;19.77;65.62;99328.28;4953298;29;20039;-74
2022/07/30 02:19:39;;;;;;;;;;;;;;;19.99;65.37;99337.44;4937908;29;20126;-74
2022/07/30 02:22:13;;;;;;;21.42;14.35;;;;;;;20.10;65.12;99330.72;4953343;29;19923;-74
2022/07/30 02:24:41;;;;;;;19.83;14.20;;;;;;;20.34;64.68;99337.75;4969877;28;20113;-75
2022/07/30 02:27:18;;;;;;;20.23;15.13;;;;;;;20.39;64.20;99329.91;4937201;29;20455;-75
2022/07/30 02:29:46;;;;;;;23.98;14.82;;;;;;;20.38;64.42;99331.81;4954463;29;20059;-75
2022/07/30 02:32:16;;;;;;;18.38;15.32;;;;;;;20.31;64.50;99330.84;4969198;28;20101;-75
2022/07/30 02:34:47;;;;;;;23.52;15.25;;;;;;;20.44;64.41;99324.75;4921666;29;20047;-75
2022/07/30 02:37:14;;;;;;;25.98;14.15;;;;;;;20.66;63.97;99338.47;4937653;29;20050;-75
2022/07/30 02:39:42;;;;;;;22.20;14.95;;;;;;;20.75;63.22;99337.34;4921595;29;20078;-75
2022/07/30 02:42:11;;;;;;;26.42;14.68;;;;;;;20.61;63.62;99337.16;4953227;29;20047;-75
2022/07/30 02:44:38;;;;;;;;;;;;;;;20.46;63.67;99330.00;4937691;29;20050;-75
2022/07/30 02:47:04;;;;;;;17.05;13.88;;;;;;;20.19;64.48;99318.75;4969310;28;20374;-75
2022/07/30 02:49:41;;;;;;;19.38;14.70;;;;;;;20.32;64.35;99320.84;4953262;29;20137;-75
2022/07/30 02:52:12;;;;;;;25.88;14.70;;;;;;;20.51;64.18;99325.75;4953017;29;20388;-75
2022/07/30 02:54:41;;;;;;;23.60;14.38;;;;;;;20.64;63.76;99329.66;4953054;29;20075;-76
2022/07/30 02:57:08;;;;;;;16.63;12.88;;;;;;;20.79;63.42;99334.03;4921293;29;20047;-74
2022/07/30 02:59:36;;;;;;;21.65;13.77;;;;;;;20.81;63.23;99331.16;4953291;29;20447;-75
2022/07/30 03:02:03;;;;;;;22.50;12.20;;;;;;;21.02;62.58;99339.34;4952380;29;20049;-81
2022/07/30 03:04:31;;;;;;;19.50;13.30;;;;;;;20.85;62.75;99343.34;4975687;28;20376;-79
2022/07/30 03:06:58;;;;;;;21.52;12.85;;;;;;;20.60;63.78;99330.03;4992211;28;20054;-80
2022/07/30 03:09:26;;;;;;;20.85;14.82;;;;;;;20.48;64.22;99334.22;4976831;28;20047;-78
2022/07/30 03:11:54;;;;;;;20.50;14.13;;;;;;;20.36;64.62;99338.44;4975761;28;20129;-77
2022/07/30 03:14:20;;;;;;;24.23;14.43;;;;;;;20.37;64.74;99340.09;4975245;28;20476;-78
2022/07/30 03:16:52;;;;;;;27.52;16.90;;;;;;;20.52;64.46;99338.28;4991982;28;20438;-76
2022/07/30 03:19:28;;;;;;;25.48;15.85;;;;;;;20.33;64.78;99327.94;4975361;28;20046;-77
2022/07/30 03:21:55;;;;;;;23.35;15.52;;;;;;;20.46;64.78;99339.00;4959360;28;20074;-77
2022/07/30 03:24:24;;;;;;;31.63;14.70;;;;;;;20.72;63.92;99337.72;4975250;28;20046;-77
2022/07/30 03:26:53;;;;;;;23.48;16.05;;;;;;;20.92;63.33;99338.84;4959107;28;20128;-77
2022/07/30 03:29:20;;;;;;;23.50;14.00;;;;;;;21.10;63.37;99333.84;4974913;28;20509;-78
2022/07/30 03:31:46;;;;;;;32.17;16.25;;;;;;;21.28;62.68;99349.69;4975423;28;20047;-78
2022/07/30 03:34:12;;;;;;;38.97;17.55;;;;;;;21.39;62.60;99342.13;4959230;28;20081;-79
2022/07/30 03:36:40;;;;;;;37.03;18.20;;;;;;;21.48;62.08;99344.53;4975040;28;20043;-80
2022/07/30 03:39:07;;;;;;;45.35;18.88;;;;;;;21.69;61.79;99345.56;4958776;28;20035;-78
2022/07/30 03:41:35;;;;;;;37.10;18.17;;;;;;;21.76;61.26;99344.59;4975927;28;20059;-78
2022/07/30 03:44:02;;;;;;;32.90;18.77;;;;;;;22.05;60.72;99346.31;4974868;28;20046;-74
2022/07/30 03:46:31;;;;;;;39.75;20.13;;;;;;;22.11;60.23;99346.56;4957985;28;20138;-76
2022/07/30 03:48:59;;;;;;;39.53;21.88;;;;;;;22.13;60.09;99347.22;4974790;28;20502;-74
2022/07/30 03:51:26;;;;;;;52.30;23.38;;;;;;;22.34;59.96;99351.78;4974677;28;20051;-74
2022/07/30 03:53:54;;;;;;;62.70;21.17;;;;;;;22.61;59.38;99337.34;4990817;28;20486;-75
2022/07/30 03:56:47;;;;;;;41.35;21.95;;;;;;;23.05;58.29;99346.16;4967680;28;20055;-75
2022/07/30 03:59:34;;;;;;;48.88;20.95;;;;;;;23.35;57.23;99347.53;4988168;28;20065;-77
2022/07/30 04:02:02;;;;;;;47.72;20.10;;;;;;;23.54;56.34;99339.59;4975792;28;20081;-75
2022/07/30 04:04:51;;;;;;;36.35;18.23;;;;;;;23.82;54.87;99348.50;4947208;28;20051;-75
2022/07/30 04:07:17;;;;;;;46.33;19.23;;;;;;;23.73;54.46;99349.75;4974566;28;20053;-75
2022/07/30 04:09:43;;;;;;;40.92;18.63;;;;;;;23.78;54.82;99344.53;4958344;28;20133;-75
2022/07/30 04:12:25;;;;;;;35.97;18.60;;;;;;;23.88;54.51;99328.56;4974616;28;20053;-75
2022/07/30 04:14:52;;;;;;;34.22;15.02;;;;;;;24.08;53.79;99353.16;4974183;28;20375;-77
2022/07/30 04:17:26;;;;;;;29.90;16.83;;;;;;;24.35;52.81;99340.31;4973749;28;20071;-82
2022/07/30 04:20:26;;;;;;;44.60;16.45;;;;;;;24.51;53.09;99351.88;4971322;28;20406;-77
2022/07/30 04:22:53;;;;;;;50.25;17.73;;;;;;;24.89;51.62;99358.28;4934615;29;20503;-78
2022/07/30 04:25:21;;;;;;;33.42;16.60;;;;;;;24.99;51.65;99359.75;4970951;28;20086;-80
2022/07/30 04:27:48;;;;;;;32.57;15.27;;;;;;;25.39;51.04;99349.50;4971268;28;20047;-78
2022/07/30 04:30:14;;;;;;;26.08;15.10;;;;;;;25.74;50.00;99352.66;4954381;29;20051;-79
2022/07/30 04:32:41;;;;;;;26.25;14.05;;;;;;;25.99;49.16;99346.38;4954330;29;20055;-77
2022/07/30 04:35:33;;;;;;;35.38;14.50;;;;;;;26.27;48.48;99348.69;4955851;29;20134;-79
2022/07/30 04:38:14;;;;;;;42.20;15.70;;;;;;;26.54;47.56;99350.13;4938960;29;20127;-78
2022/07/30 04:40:42;;;;;;;37.55;16.20;;;;;;;26.27;47.22;99324.88;4970583;28;20062;-78
2022/07/30 04:43:07;;;;;;;41.25;17.45;;;;;;;26.19;47.71;99347.06;4954164;29;20047;-78
2022/07/30 04:45:36;;;;;;;31.25;15.50;;;;;;;26.51;48.02;99347.84;4970166;28;20051;-78
2022/07/30 04:48:04;;;;;;;30.38;14.00;;;;;;;26.51;46.96;99344.28;4938799;29;20050;-76
2022/07/30 04:50:44;;;;;;;;;;;;;;;26.64;47.76;99346.88;4955246;29;20054;-77
2022/07/30 04:53:13;;;;;;;25.58;14.10;;;;;;;27.00;46.82;99328.75;4954559;28;19925;-84
2022/07/30 04:55:48;;;;;;;23.75;11.50;;;;;;;27.14;46.16;99341.25;4954212;29;20043;-83
2022/07/30 04:58:18;;;;;;;27.02;9.60;;;;;;;27.47;45.14;99351.81;4970441;28;20031;-84
2022/07/30 05:00:45;;;;;;;22.70;9.88;;;;;;;27.53;43.84;99336.31;4970290;28;20042;-86
2022/07/30 05:03:16;;;;;;;21.38;9.43;;;;;;;27.65;43.92;99334.44;4954154;29;20051;-83
2022/07/30 05:05:50;;;;;;;19.58;9.10;;;;;;;27.75;42.81;99340.22;4970932;28;20110;-83
2022/07/30 05:08:16;;;;;;;20.47;9.27;;;;;;;27.63;42.88;99347.56;4954014;29;20058;-82
2022/07/30 05:10:43;;;;;;;23.13;8.60;;;;;;;27.35;43.07;99342.69;4954180;28;20050;-82
2022/07/30 05:13:13;;;;;;;22.35;8.48;;;;;;;27.13;43.99;99342.34;4922506;29;20061;-79
2022/07/30 05:15:40;;;;;;;19.05;6.82;;;;;;;27.12;43.27;99329.69;4969909;28;20083;-77
2022/07/30 05:18:09;;;;;;;16.35;7.00;;;;;;;27.20;43.37;99343.09;4953593;29;20051;-81
2022/07/30 05:20:38;;;;;;;16.60;7.30;;;;;;;27.30;43.15;99346.13;4953677;29;20047;-78
2022/07/30 05:23:23;;;;;;;13.60;8.00;;;;;;;27.16;43.12;99347.38;4969651;28;20075;-79
2022/07/30 05:26:01;;;;;;;14.32;7.63;;;;;;;26.91;43.60;99338.38;4953680;29;20043;-79
2022/07/30 05:28:32;;;;;;;19.83;8.70;;;;;;;26.68;43.43;99320.69;4922063;29;20139;-78
2022/07/30 05:31:03;;;;;;;14.55;7.20;;;;;;;26.73;43.62;99328.22;4953673;29;20051;-79
2022/07/30 05:33:29;;;;;;;10.68;6.57;;;;;;;26.79;43.79;99332.81;4969680;28;20110;-79
2022/07/30 05:35:57;;;;;;;21.73;7.82;;;;;;;26.79;43.74;99328.16;4921860;29;20155;-82
2022/07/30 05:38:22;;;;;;;20.85;6.95;;;;;;;26.29;44.36;99330.09;4967203;28;20426;-81
2022/07/30 05:41:06;;;;;;;15.05;6.57;;;;;;;26.06;44.80;99323.34;4940189;29;20058;-78
2022/07/30 05:43:51;;;;;;;18.65;7.90;;;;;;;26.26;45.10;99325.94;4953468;29;20093;-80
2022/07/30 05:46:16;;;;;;;14.55;8.82;;;;;;;26.09;44.68;99322.06;4953522;28;20494;-78
2022/07/30 05:48:42;;;;;;;20.13;7.90;;;;;;;26.07;45.03;99324.22;4954654;29;20035;-77
2022/07/30 05:51:08;;;;;;;18.75;8.43;;;;;;;25.52;45.60;99329.44;4954909;28;20102;-77
2022/07/30 05:53:34;;;;;;;10.68;6.97;;;;;;;25.05;47.54;99321.44;4937593;29;20554;-76
2022/07/30 05:56:22;;;;;;;;;;;;;;;25.48;46.96;99322.72;4945254;28;20065;-78
2022/07/30 05:58:55;;;;;;;16.55;7.70;;;;;;;25.71;46.75;99317.50;4969927;28;19926;-77
2022/07/30 06:01:34;;;;;;;13.73;7.88;;;;;;;26.06;45.87;99323.34;4969461;28;20043;-78
2022/07/30 06:04:07;;;;;;;17.27;9.55;;;;;;;26.15;45.38;99321.19;4953311;29;20066;-76
2022/07/30 06:06:40;;;;;;;21.23;8.07;;;;;;;26.40;45.47;99324.75;4969615;28;20043;-77
2022/07/30 06:09:07;;;;;;;13.25;7.10;;;;;;;26.67;45.88;99316.28;4937036;29;20467;-78
2022/07/30 06:11:32;;;;;;;19.55;8.05;;;;;;;26.95;44.67;99323.94;4973290;28;20043;-78
2022/07/30 06:13:59;;;;;;;14.82;8.05;;;;;;;27.07;44.11;99316.63;4972318;28;20097;-78
2022/07/30 06:16:26;;;;;;;18.08;8.82;;;;;;;26.94;43.83;99325.03;4970153;28;20038;-79
2022/07/30 06:18:52;;;;;;;10.63;7.70;;;;;;;26.91;43.90;99309.03;4959156;28;20364;-79
2022/07/30 06:21:50;;;;;;;16.17;7.68;;;;;;;26.95;43.78;99309.41;4946798;29;20050;-79
2022/07/30 06:24:16;;;;;;;19.23;8.52;;;;;;;26.88;42.34;99304.81;4936992;29;20118;-79
2022/07/30 06:26:47;;;;;;;26.77;8.35;;;;;;;27.12;42.86;99321.47;4953367;29;20047;-79
2022/07/30 06:29:13;;;;;;;18.23;7.68;;;;;;;27.50;41.80;99309.34;4953537;29;20043;-79
2022/07/30 06:31:40;;;;;;;19.20;6.85;;;;;;;27.88;41.78;99297.16;4936900;29;20066;-79
2022/07/30 06:34:07;;;;;;;24.25;8.80;;;;;;;28.42;40.47;99307.00;4947072;28;20050;-78
2022/07/30 06:36:39;;;;;;;17.42;9.25;;;;;;;28.55;39.26;99301.25;4988579;28;20078;-80
2022/07/30 06:39:13;;;;;;;18.70;8.02;;;;;;;28.84;39.74;99305.97;4957042;28;20133;-81
2022/07/30 06:41:57;;;;;;;17.75;8.07;;;;;;;29.23;39.05;99307.94;4977798;28;20043;-84
2022/07/30 06:44:26;;;;;;;21.40;8.38;;;;;;;29.50;37.58;99297.16;4945235;28;20062;-77
2022/07/30 06:47:11;;;;;;;16.98;8.02;;;;;;;29.64;37.57;99308.75;4977310;28;20073;-79
2022/07/30 06:49:38;;;;;;;24.73;8.98;;;;;;;29.58;37.36;99304.22;4992317;28;20129;-77
2022/07/30 06:52:07;;;;;;;23.33;8.55;;;;;;;29.73;37.34;99306.41;4944437;28;20038;-78
2022/07/30 06:54:33;;;;;;;51.80;11.23;;;;;;;29.98;36.63;99298.59;4975827;28;20158;-83
2022/07/30 06:57:08;;;;;;;40.92;10.32;;;;;;;30.18;35.92;99289.81;4959443;28;20043;-82
2022/07/30 06:59:34;;;;;;;38.53;11.10;;;;;;;29.90;35.55;99303.66;4975425;28;20046;-77
2022/07/30 07:02:20;;;;;;;24.58;8.80;;;;;;;29.46;36.13;99297.91;4959785;28;20430;-78
2022/07/30 07:05:02;;;;;;;34.70;10.88;;;;;;;29.14;36.39;99300.31;4975957;28;20498;-78
2022/07/30 07:07:30;;;;;;;29.73;10.48;;;;;;;29.19;36.92;99295.75;4975577;28;20047;-78
2022/07/30 07:09:55;;;;;;;25.15;9.85;;;;;;;29.57;36.72;99294.25;4975903;28;20050;-77
2022/07/30 07:12:41;;;;;;;16.40;7.15;;;;;;;29.70;35.17;99299.47;4969815;28;20521;-79
2022/07/30 07:15:08;;;;;;;16.63;6.95;;;;;;;29.87;35.16;99288.47;4975672;28;20042;-79
2022/07/30 07:17:34;;;;;;;18.20;5.75;;;;;;;30.24;34.35;99283.31;4959724;28;20521;-82
2022/07/30 07:20:00;;;;;;;23.38;5.53;;;;;;;30.51;33.78;99279.00;4975700;28;20074;-77
2022/07/30 07:22:26;;;;;;;11.93;4.88;;;;;;;30.70;33.19;99280.34;4975423;28;20042;-78
2022/07/30 07:24:52;;;;;;;16.10;5.45;;;;;;;30.19;32.28;99279.63;4959889;28;20433;-78
2022/07/30 07:27:22;;;;;;;8.60;4.70;;;;;;;30.26;33.22;99273.94;4972836;28;20089;-77
2022/07/30 07:29:52;;;;;;;9.50;5.30;;;;;;;30.21;33.06;99286.56;4966115;28;20055;-78
2022/07/30 07:32:17;;;;;;;8.10;4.28;;;;;;;30.22;32.96;99273.63;4964600;28;20035;-78
2022/07/30 07:34:43;;;;;;;8.80;4.20;;;;;;;30.17;33.08;99281.81;4965615;28;20034;-78
2022/07/30 07:37:09;;;;;;;17.70;4.97;;;;;;;29.94;32.64;99274.50;4947694;29;20144;-77
2022/07/30 07:39:35;;;;;;;9.95;4.78;;;;;;;29.66;33.72;99264.41;4982125;28;20098;-78
2022/07/30 07:42:01;;;;;;;11.48;5.07;;;;;;;29.68;33.97;99276.03;4963545;28;20085;-77
2022/07/30 07:44:28;;;;;;;14.60;6.10;;;;;;;29.18;34.26;99273.97;4952739;28;20043;-79
2022/07/30 07:46:54;;;;;;;17.48;7.15;;;;;;;29.12;34.68;99278.53;4974941;28;20776;-79
2022/07/30 07:49:23;;;;;;;20.33;7.25;;;;;;;29.08;34.60;99269.09;4991144;28;20066;-79
2022/07/30 07:51:50;;;;;;;10.20;5.70;;;;;;;29.08;34.65;99268.28;4989993;28;20469;-76
2022/07/30 07:54:18;;;;;;;17.27;5.60;;;;;;;29.59;34.53;99270.06;4958922;28;20054;-77
2022/07/30 07:56:44;;;;;;;17.83;5.60;;;;;;;29.73;33.61;99270.59;4974750;28;20458;-76
2022/07/30 07:59:12;;;;;;;16.33;6.72;;;;;;;29.58;34.21;99268.41;4990928;28;20084;-76
2022/07/30 08:01:38;;;;;;;18.15;7.65;;;;;;;29.01;35.40;99262.91;4974450;28;20050;-76
2022/07/30 08:04:36;;;;;;;13.55;7.15;;;;;;;28.96;35.88;99260.00;4975755;28;20149;-76
2022/07/30 08:07:22;;;;;;;18.50;6.32;;;;;;;29.03;35.36;99261.56;4977972;28;20065;-76
2022/07/30 08:10:03;;;;;;;18.17;5.85;;;;;;;29.05;34.20;99258.59;4975851;28;20138;-76
2022/07/30 08:13:02;;;;;;;;;;;;;;;29.38;34.69;99268.84;4974925;28;20510;-75
2022/07/30 08:15:51;;;;;;;10.32;5.10;;;;;;;29.61;33.40;99264.34;4967003;28;19968;-76
2022/07/30 08:18:43;;;;;;;9.80;4.93;;;;;;;29.47;32.24;99264.59;4966999;28;20498;-76
2022/07/30 08:21:26;;;;;;;11.05;5.03;;;;;;;29.26;32.68;99257.91;4974646;28;20046;-76
2022/07/30 08:23:52;;;;;;;11.10;4.40;;;;;;;29.09;32.76;99259.75;4974238;28;20105;-76
2022/07/30 08:26:17;;;;;;;10.07;4.43;;;;;;;28.87;32.93;99244.97;4990469;28;20142;-76
2022/07/30 08:28:44;;;;;;;16.40;5.60;;;;;;;28.74;32.79;99252.44;4990322;28;20078;-76
2022/07/30 08:31:11;;;;;;;11.95;5.40;;;;;;;28.79;33.07;99254.44;4990222;28;20481;-76
2022/07/30 08:33:37;;;;;;;15.27;5.00;;;;;;;28.94;32.95;99240.16;4989994;28;20078;-76
2022/07/30 08:36:03;;;;;;;20.48;5.68;;;;;;;29.05;32.50;99255.84;4957309;28;20505;-77
2022/07/30 08:38:29;;;;;;;16.55;5.03;;;;;;;28.82;32.72;99255.88;4990285;28;20098;-76
2022/07/30 08:40:55;;;;;;;12.75;4.80;;;;;;;29.24;32.82;99254.53;4973926;28;20066;-77
2022/07/30 08:43:23;;;;;;;16.65;4.40;;;;;;;29.80;31.54;99259.41;4989746;28;20051;-76
2022/07/30 08:45:50;;;;;;;16.10;4.20;;;;;;;29.66;31.59;99243.19;4973725;28;20042;-76
2022/07/30 08:48:41;;;;;;;10.20;4.53;;;;;;;29.91;31.16;99255.75;4979242;28;20059;-76
2022/07/30 08:51:07;;;;;;;7.97;4.20;;;;;;;30.28;31.28;99250.56;4989800;28;20039;-76
2022/07/30 08:53:34;;;;;;;9.43;3.72;;;;;;;30.13;30.36;99248.38;4957669;28;20157;-76
2022/07/30 08:56:01;;;;;;;9.70;3.90;;;;;;;30.09;30.22;99251.88;4972696;28;20124;-77
2022/07/30 08:58:32;;;;;;;14.20;3.67;;;;;;;29.74;30.40;99245.53;4957226;28;20089;-76
2022/07/30 09:00:58;;;;;;;4.63;3.70;;;;;;;29.10;31.44;99244.91;4973362;28;20418;-78
2022/07/30 09:03:27;;;;;;;11.20;4.63;;;;;;;28.71;31.34;99252.91;4973328;28;20047;-77
2022/07/30 09:05:56;;;;;;;9.60;4.05;;;;;;;28.50;31.62;99257.13;4973537;28;20133;-76
2022/07/30 09:08:22;;;;;;;7.25;4.47;;;;;;;28.39;31.82;99249.75;4989404;28;20126;-77
2022/07/30 09:10:49;;;;;;;8.68;4.13;;;;;;;28.63;31.86;99250.56;4973060;28;20056;-76
2022/07/30 09:13:30;;;;;;;16.77;3.97;;;;;;;29.00;31.89;99250.25;4973426;28;20043;-76
2022/07/30 09:15:58;;;;;;;19.48;4.47;;;;;;;29.72;31.06;99249.66;4973415;28;20516;-76
2022/07/30 09:18:33;;;;;;;17.58;4.80;;;;;;;30.09;28.81;99252.72;4989192;28;20085;-77
2022/07/30 09:21:28;;;;;;;17.88;5.25;;;;;;;30.11;28.88;99245.03;4973195;28;20050;-76
2022/07/30 09:24:17;;;;;;;13.70;4.93;;;;;;;30.33;28.64;99241.50;4972148;28;20471;-76
2022/07/30 09:27:06;;;;;;;13.52;4.63;;;;;;;31.08;28.53;99235.31;4978915;28;20047;-76
2022/07/30 09:29:57;;;;;;;8.15;3.42;;;;;;;31.34;28.15;99219.03;4973239;28;20060;-77
2022/07/30 09:32:53;;;;;;;8.98;3.83;;;;;;;31.38;27.62;99236.75;4987374;28;20577;-78
2022/07/30 09:35:42;;;;;;;7.70;3.97;;;;;;;31.51;27.03;99233.53;4962088;28;20434;-76
2022/07/30 09:38:10;;;;;;;5.95;3.78;;;;;;;31.78;26.87;99225.19;4974234;28;20510;-76
2022/07/30 09:40:52;;;;;;;8.40;4.10;;;;;;;31.91;26.42;99235.03;4988050;28;20046;-74
2022/07/30 09:43:45;;;;;;;9.65;4.18;;;;;;;32.11;26.44;99224.09;4972788;28;20046;-78
2022/07/30 09:46:19;;;;;;;8.30;4.00;;;;;;;32.19;25.83;99224.69;4972731;28;20045;-76
2022/07/30 09:48:45;;;;;;;12.57;4.30;;;;;;;32.64;26.04;99238.78;4989003;28;20039;-75
2022/07/30 09:51:12;;;;;;;9.20;4.00;;;;;;;32.44;25.56;99249.78;4972823;28;20545;-77
2022/07/30 09:53:57;;;;;;;11.02;3.60;;;;;;;32.70;25.62;99244.38;4972977;28;20038;-75
2022/07/30 09:56:27;;;;;;;9.98;3.80;;;;;;;33.11;25.30;99243.44;4975931;28;20034;-77
2022/07/30 09:58:54;;;;;;;12.02;4.30;;;;;;;32.86;25.21;99226.69;4972995;28;20057;-78
2022/07/30 10:01:20;;;;;;;9.13;3.63;;;;;;;33.63;25.04;99224.97;4988899;28;20410;-78
2022/07/30 10:03:53;;;;;;;27.58;5.00;;;;;;;33.50;24.57;99233.81;4972827;28;20039;-78
2022/07/30 10:06:34;;;;;;;17.17;4.65;;;;;;;33.06;24.78;99235.13;4981511;28;20419;-77
2022/07/30 10:09:05;;;;;;;7.68;3.88;;;;;;;33.30;24.77;99235.44;4954895;28;20049;-79
2022/07/30 10:11:31;;;;;;;12.38;4.30;;;;;;;33.40;24.76;99240.19;4956166;28;20066;-77
2022/07/30 10:14:00;;;;;;;5.38;3.35;;;;;;;33.10;24.37;99240.94;4961477;28;20126;-77
2022/07/30 10:16:28;;;;;;;6.63;3.55;;;;;;;32.92;25.03;99222.84;4983637;28;20178;-78
2022/07/30 10:18:59;;;;;;;5.90;3.35;;;;;;;32.92;25.10;99239.47;4975987;28;20121;-78
2022/07/30 10:21:49;;;;;;;8.70;3.60;;;;;;;33.44;24.53;99232.97;4930582;28;20058;-78
2022/07/30 10:24:19;;;;;;;7.90;3.33;;;;;;;34.13;24.11;99233.56;4971191;28;20038;-79
2022/07/30 10:26:52;;;;;;;5.93;2.90;;;;;;;34.20;23.20;99223.84;4970805;28;20512;-79
2022/07/30 10:29:40;;;;;;;6.22;3.33;;;;;;;34.56;22.98;99223.75;4970444;28;20053;-78
2022/07/30 10:32:06;;;;;;;4.65;3.22;;;;;;;34.75;22.83;99238.66;4955079;29;20074;-78
2022/07/30 10:34:32;;;;;;;7.78;3.50;;;;;;;35.67;22.30;99220.66;4941408;29;20055;-78
2022/07/30 10:37:04;;;;;;;8.68;3.40;;;;;;;36.30;21.29;99228.13;4958643;28;20042;-78
2022/07/30 10:39:38;;;;;;;5.07;2.95;;;;;;;36.39;20.97;99221.63;4956966;29;20051;-77
2022/07/30 10:42:20;;;;;;;5.93;3.22;;;;;;;36.09;21.19;99222.78;4956773;29;20569;-78
2022/07/30 10:44:52;;;;;;;10.93;3.25;;;;;;;35.50;21.54;99232.97;4956560;29;20074;-78
2022/07/30 10:47:19;;;;;;;5.47;3.20;;;;;;;35.80;21.83;99211.59;4972744;28;20043;-77
2022/07/30 10:50:05;;;;;;;5.47;3.20;;;;;;;36.19;20.98;99232.97;4956941;29;20398;-79
2022/07/30 10:52:52;;;;;;;6.15;2.95;;;;;;;35.91;21.28;99217.91;4956604;29;20050;-77
2022/07/30 10:55:24;;;;;;;4.10;3.10;;;;;;;35.59;21.83;99224.06;4940757;29;20050;-78
2022/07/30 10:58:06;;;;;;;5.15;2.85;;;;;;;33.82;23.35;99228.03;4940611;29;20051;-78
2022/07/30 11:00:34;;;;;;;5.35;3.15;;;;;;;33.27;24.10;99230.44;4956474;29;20047;-77
2022/07/30 11:03:14;;;;;;;5.57;3.17;;;;;;;33.83;23.93;99238.00;4957634;29;20530;-78
2022/07/30 11:05:40;;;;;;;6.32;3.40;;;;;;;33.63;24.03;99226.88;4956817;29;20097;-78
2022/07/30 11:08:27;;;;;;;6.03;3.40;;;;;;;33.45;24.53;99229.09;4957824;28;20047;-78
2022/07/30 11:10:54;;;;;;;9.98;3.63;;;;;;;34.30;23.41;99239.59;4956386;29;20081;-78
2022/07/30 11:13:49;;;;;;;6.00;3.08;;;;;;;35.23;23.29;99219.53;4956323;29;20042;-77
2022/07/30 11:16:16;;;;;;;3.58;3.28;;;;;;;36.16;22.14;99216.88;4925188;29;20047;-77
2022/07/30 11:19:15;;;;;;;10.35;3.65;;;;;;;36.07;21.21;99219.47;4956325;29;20043;-78
2022/07/30 11:21:42;;;;;;;9.75;3.13;;;;;;;36.46;21.29;99202.63;4940079;29;20051;-78
2022/07/30 11:24:47;;;;;;;5.10;2.90;;;;;;;37.05;21.09;99225.59;4957266;28;20051;-78
2022/07/30 11:27:37;;;;;;;4.95;3.10;;;;;;;36.99;20.55;99217.59;4954082;28;20422;-78
2022/07/30 11:30:15;;;;;;;4.85;2.80;;;;;;;36.51;20.59;99217.63;4955825;29;20117;-78
2022/07/30 11:32:45;;;;;;;7.53;3.28;;;;;;;36.45;20.77;99214.88;4955993;29;20051;-78
2022/07/30 11:35:20;;;;;;;4.50;2.70;;;;;;;36.43;20.82;99217.09;4955945;29;20086;-77
2022/07/30 11:38:08;;;;;;;8.95;3.03;;;;;;;37.27;20.12;99219.38;4956005;29;20063;-77
2022/07/30 11:40:57;;;;;;;3.33;2.75;;;;;;;37.32;20.09;99218.50;4961953;28;20072;-78
2022/07/30 11:43:31;;;;;;;5.85;2.80;;;;;;;38.19;19.43;99212.31;4965812;28;20046;-78
2022/07/30 11:46:13;;;;;;;8.88;3.00;;;;;;;37.98;18.92;99216.59;4972799;28;20560;-77
2022/07/30 11:48:41;;;;;;;4.20;2.65;;;;;;;38.10;19.27;99208.56;4976113;28;20506;-77
2022/07/30 11:51:08;;;;;;;4.75;2.88;;;;;;;38.81;18.66;99217.50;4975950;28;20414;-77
2022/07/30 11:53:34;;;;;;;3.80;2.88;;;;;;;38.92;18.49;99206.94;4974673;28;20042;-76